Anicuns, Brazil
Current Conditions -  °F | °C
As of 10:00 AM on Monday 26 Jan 2015 (Local Time) from SBGO Reporting Station
Broken Clouds Broken Clouds  
Wind Chill: 24°   Ceiling: 9000
Heat Index: 24°   Visibility: 6mi
Dew Point: 17°   Wind: 7mph
Humidity: 65%   Direction: 330°NNW
Pressure: 30.09"   Gusts: NA
Location:  16.46°S, 49.96°W
Report Text: SBGO 261200Z 33006KT 9999 FEW030 BKN090 24/17 Q1019
Loading
Personal Weather Stations






























Interactive Weather Map New forecast layout! Learn more

10-Day Weather Forecast

Advertisements
Track Severe Weather on mobile